sensor_id;sensor_type;location;lat;lon;timestamp;temperature;humidity
50969;DHT22;36982;51.474;7.228;2023-08-06T00:01:29;16.10;99.90
50969;DHT22;36982;51.474;7.228;2023-08-06T00:03:54;16.10;99.90
50969;DHT22;36982;51.474;7.228;2023-08-06T00:06:20;16.20;99.90
50969;DHT22;36982;51.474;7.228;2023-08-06T00:08:45;16.00;99.90
50969;DHT22;36982;51.474;7.228;2023-08-06T00:11:11;16.00;99.90
50969;DHT22;36982;51.474;7.228;2023-08-06T00:13:38;16.00;99.90
50969;DHT22;36982;51.474;7.228;2023-08-06T00:16:10;16.00;99.90
50969;DHT22;36982;51.474;7.228;2023-08-06T00:18:38;15.90;99.90
50969;DHT22;36982;51.474;7.228;2023-08-06T00:21:03;15.90;99.90
50969;DHT22;36982;51.474;7.228;2023-08-06T00:23:29;16.00;99.90
50969;DHT22;36982;51.474;7.228;2023-08-06T00:25:54;16.00;99.90
50969;DHT22;36982;51.474;7.228;2023-08-06T00:28:20;16.00;99.90
50969;DHT22;36982;51.474;7.228;2023-08-06T00:30:46;16.00;99.90
50969;DHT22;36982;51.474;7.228;2023-08-06T00:33:11;16.00;99.90
50969;DHT22;36982;51.474;7.228;2023-08-06T00:35:37;15.90;99.90
50969;DHT22;36982;51.474;7.228;2023-08-06T00:38:03;16.00;99.90
50969;DHT22;36982;51.474;7.228;2023-08-06T00:40:28;15.90;99.90
50969;DHT22;36982;51.474;7.228;2023-08-06T00:42:55;15.90;99.90
50969;DHT22;36982;51.474;7.228;2023-08-06T00:45:21;16.00;99.90
50969;DHT22;36982;51.474;7.228;2023-08-06T00:47:47;16.00;99.90
50969;DHT22;36982;51.474;7.228;2023-08-06T00:50:13;16.00;99.90
50969;DHT22;36982;51.474;7.228;2023-08-06T00:52:39;15.90;99.90
50969;DHT22;36982;51.474;7.228;2023-08-06T00:55:06;15.80;99.90
50969;DHT22;36982;51.474;7.228;2023-08-06T00:57:32;15.90;99.90
50969;DHT22;36982;51.474;7.228;2023-08-06T00:59:58;15.90;99.90
50969;DHT22;36982;51.474;7.228;2023-08-06T01:02:23;15.90;99.90
50969;DHT22;36982;51.474;7.228;2023-08-06T01:04:49;15.90;99.90
50969;DHT22;36982;51.474;7.228;2023-08-06T01:07:37;15.80;99.90
50969;DHT22;36982;51.474;7.228;2023-08-06T01:13:22;15.80;99.90
50969;DHT22;36982;51.474;7.228;2023-08-06T01:15:52;15.80;99.90
50969;DHT22;36982;51.474;7.228;2023-08-06T01:18:20;15.90;99.90
50969;DHT22;36982;51.474;7.228;2023-08-06T01:20:45;15.80;99.90
50969;DHT22;36982;51.474;7.228;2023-08-06T01:23:11;15.90;99.90
50969;DHT22;36982;51.474;7.228;2023-08-06T01:25:49;15.80;99.90
50969;DHT22;36982;51.474;7.228;2023-08-06T01:31:31;15.80;99.90
50969;DHT22;36982;51.474;7.228;2023-08-06T01:33:58;15.70;99.90
50969;DHT22;36982;51.474;7.228;2023-08-06T01:36:25;15.80;99.90
50969;DHT22;36982;51.474;7.228;2023-08-06T01:38:52;15.90;99.90
50969;DHT22;36982;51.474;7.228;2023-08-06T01:41:18;15.90;99.90
50969;DHT22;36982;51.474;7.228;2023-08-06T01:43:43;15.80;99.90
50969;DHT22;36982;51.474;7.228;2023-08-06T01:46:09;15.90;99.90
50969;DHT22;36982;51.474;7.228;2023-08-06T01:48:35;15.90;99.90
50969;DHT22;36982;51.474;7.228;2023-08-06T01:51:01;16.00;99.90
50969;DHT22;36982;51.474;7.228;2023-08-06T01:53:29;16.00;99.90
50969;DHT22;36982;51.474;7.228;2023-08-06T01:55:54;15.90;99.90
50969;DHT22;36982;51.474;7.228;2023-08-06T01:58:20;15.90;99.90
50969;DHT22;36982;51.474;7.228;2023-08-06T02:00:45;15.90;99.90
50969;DHT22;36982;51.474;7.228;2023-08-06T02:03:11;16.00;99.90
50969;DHT22;36982;51.474;7.228;2023-08-06T02:05:36;16.10;99.90
50969;DHT22;36982;51.474;7.228;2023-08-06T02:08:02;15.90;99.90
50969;DHT22;36982;51.474;7.228;2023-08-06T02:10:27;16.00;99.90
50969;DHT22;36982;51.474;7.228;2023-08-06T02:12:53;16.00;99.90
50969;DHT22;36982;51.474;7.228;2023-08-06T02:15:18;16.00;99.90
50969;DHT22;36982;51.474;7.228;2023-08-06T02:17:44;16.00;99.90
50969;DHT22;36982;51.474;7.228;2023-08-06T02:20:10;16.00;99.90
50969;DHT22;36982;51.474;7.228;2023-08-06T02:22:35;15.90;99.90
50969;DHT22;36982;51.474;7.228;2023-08-06T02:25:01;16.00;99.90
50969;DHT22;36982;51.474;7.228;2023-08-06T02:27:26;15.90;99.90
50969;DHT22;36982;51.474;7.228;2023-08-06T02:29:52;15.90;99.90
50969;DHT22;36982;51.474;7.228;2023-08-06T02:32:18;15.80;99.90
50969;DHT22;36982;51.474;7.228;2023-08-06T02:34:43;15.80;99.90
50969;DHT22;36982;51.474;7.228;2023-08-06T02:37:09;15.80;99.90
50969;DHT22;36982;51.474;7.228;2023-08-06T02:39:34;15.80;99.90
50969;DHT22;36982;51.474;7.228;2023-08-06T02:42:01;15.80;99.90
50969;DHT22;36982;51.474;7.228;2023-08-06T02:44:29;15.70;99.90
50969;DHT22;36982;51.474;7.228;2023-08-06T02:46:55;15.70;99.90
50969;DHT22;36982;51.474;7.228;2023-08-06T02:49:20;15.70;99.90
50969;DHT22;36982;51.474;7.228;2023-08-06T02:51:46;15.70;99.90
50969;DHT22;36982;51.474;7.228;2023-08-06T02:54:12;15.60;99.90
50969;DHT22;36982;51.474;7.228;2023-08-06T02:56:37;15.60;99.90
50969;DHT22;36982;51.474;7.228;2023-08-06T02:59:03;15.70;99.90
50969;DHT22;36982;51.474;7.228;2023-08-06T03:01:29;15.60;99.90
50969;DHT22;36982;51.474;7.228;2023-08-06T03:03:54;15.50;99.90
50969;DHT22;36982;51.474;7.228;2023-08-06T03:06:20;15.40;99.90
50969;DHT22;36982;51.474;7.228;2023-08-06T03:08:46;15.50;99.90
50969;DHT22;36982;51.474;7.228;2023-08-06T03:11:11;15.40;99.90
50969;DHT22;36982;51.474;7.228;2023-08-06T03:13:37;15.30;99.90
50969;DHT22;36982;51.474;7.228;2023-08-06T03:16:02;15.20;99.90
50969;DHT22;36982;51.474;7.228;2023-08-06T03:18:28;15.20;99.90
50969;DHT22;36982;51.474;7.228;2023-08-06T03:20:54;15.30;99.90
50969;DHT22;36982;51.474;7.228;2023-08-06T03:23:20;15.40;99.90
50969;DHT22;36982;51.474;7.228;2023-08-06T03:25:45;15.30;99.90
50969;DHT22;36982;51.474;7.228;2023-08-06T03:28:11;15.30;99.90
50969;DHT22;36982;51.474;7.228;2023-08-06T03:30:38;15.30;99.90
50969;DHT22;36982;51.474;7.228;2023-08-06T03:33:03;15.30;99.90
50969;DHT22;36982;51.474;7.228;2023-08-06T03:35:29;15.20;99.90
50969;DHT22;36982;51.474;7.228;2023-08-06T03:37:55;15.40;99.90
50969;DHT22;36982;51.474;7.228;2023-08-06T03:40:20;15.40;99.90
50969;DHT22;36982;51.474;7.228;2023-08-06T03:42:46;15.40;99.90
50969;DHT22;36982;51.474;7.228;2023-08-06T03:45:11;15.50;99.90
50969;DHT22;36982;51.474;7.228;2023-08-06T03:47:37;15.40;99.90
50969;DHT22;36982;51.474;7.228;2023-08-06T03:50:03;15.50;99.90
50969;DHT22;36982;51.474;7.228;2023-08-06T03:52:28;15.50;99.90
50969;DHT22;36982;51.474;7.228;2023-08-06T03:54:54;15.60;99.90
50969;DHT22;36982;51.474;7.228;2023-08-06T03:57:19;15.50;99.90
50969;DHT22;36982;51.474;7.228;2023-08-06T03:59:45;15.50;99.90
50969;DHT22;36982;51.474;7.228;2023-08-06T04:02:11;15.40;99.90
50969;DHT22;36982;51.474;7.228;2023-08-06T04:04:36;15.40;99.90
50969;DHT22;36982;51.474;7.228;2023-08-06T04:07:02;15.50;99.90
50969;DHT22;36982;51.474;7.228;2023-08-06T04:09:28;15.40;99.90
50969;DHT22;36982;51.474;7.228;2023-08-06T04:11:54;15.50;99.90
50969;DHT22;36982;51.474;7.228;2023-08-06T04:14:20;15.60;99.90
50969;DHT22;36982;51.474;7.228;2023-08-06T04:16:45;15.60;99.90
50969;DHT22;36982;51.474;7.228;2023-08-06T04:19:11;15.50;99.90
50969;DHT22;36982;51.474;7.228;2023-08-06T04:21:36;15.60;99.90
50969;DHT22;36982;51.474;7.228;2023-08-06T04:24:02;15.60;99.90
50969;DHT22;36982;51.474;7.228;2023-08-06T04:26:28;15.50;99.90
50969;DHT22;36982;51.474;7.228;2023-08-06T04:28:53;15.70;99.90
50969;DHT22;36982;51.474;7.228;2023-08-06T04:31:19;15.60;99.90
50969;DHT22;36982;51.474;7.228;2023-08-06T04:33:45;15.60;99.90
50969;DHT22;36982;51.474;7.228;2023-08-06T04:36:11;15.60;99.90
50969;DHT22;36982;51.474;7.228;2023-08-06T04:38:37;15.60;99.90
50969;DHT22;36982;51.474;7.228;2023-08-06T04:41:02;15.60;99.90
50969;DHT22;36982;51.474;7.228;2023-08-06T04:43:31;15.50;99.90
50969;DHT22;36982;51.474;7.228;2023-08-06T04:45:56;15.60;99.90
50969;DHT22;36982;51.474;7.228;2023-08-06T04:48:22;15.60;99.90
50969;DHT22;36982;51.474;7.228;2023-08-06T04:50:50;15.50;99.90
50969;DHT22;36982;51.474;7.228;2023-08-06T04:53:16;15.50;99.90
50969;DHT22;36982;51.474;7.228;2023-08-06T04:55:42;15.70;99.90
50969;DHT22;36982;51.474;7.228;2023-08-06T04:58:09;15.60;99.90
50969;DHT22;36982;51.474;7.228;2023-08-06T05:00:35;15.60;99.90
50969;DHT22;36982;51.474;7.228;2023-08-06T05:03:00;15.60;99.90
50969;DHT22;36982;51.474;7.228;2023-08-06T05:05:27;15.50;99.90
50969;DHT22;36982;51.474;7.228;2023-08-06T05:07:55;15.50;99.90
50969;DHT22;36982;51.474;7.228;2023-08-06T05:10:21;15.40;99.90
50969;DHT22;36982;51.474;7.228;2023-08-06T05:12:47;15.30;99.90
50969;DHT22;36982;51.474;7.228;2023-08-06T05:15:12;15.40;99.90
50969;DHT22;36982;51.474;7.228;2023-08-06T05:17:38;15.60;99.90
50969;DHT22;36982;51.474;7.228;2023-08-06T05:20:04;15.60;99.90
50969;DHT22;36982;51.474;7.228;2023-08-06T05:22:30;15.60;99.90
50969;DHT22;36982;51.474;7.228;2023-08-06T05:24:55;15.80;99.90
50969;DHT22;36982;51.474;7.228;2023-08-06T05:27:21;15.90;99.90
50969;DHT22;36982;51.474;7.228;2023-08-06T05:29:48;16.10;99.90
50969;DHT22;36982;51.474;7.228;2023-08-06T05:32:13;16.30;99.90
50969;DHT22;36982;51.474;7.228;2023-08-06T05:34:39;16.40;99.90
50969;DHT22;36982;51.474;7.228;2023-08-06T05:37:05;16.60;99.90
50969;DHT22;36982;51.474;7.228;2023-08-06T05:39:30;16.70;99.90
50969;DHT22;36982;51.474;7.228;2023-08-06T05:41:56;16.80;99.30
50969;DHT22;36982;51.474;7.228;2023-08-06T05:44:23;17.10;99.90
50969;DHT22;36982;51.474;7.228;2023-08-06T05:46:49;17.40;99.10
50969;DHT22;36982;51.474;7.228;2023-08-06T05:49:14;17.50;98.90
50969;DHT22;36982;51.474;7.228;2023-08-06T05:51:41;18.00;98.20
50969;DHT22;36982;51.474;7.228;2023-08-06T05:54:06;18.30;90.40
50969;DHT22;36982;51.474;7.228;2023-08-06T05:56:32;18.40;92.90
50969;DHT22;36982;51.474;7.228;2023-08-06T05:58:58;18.70;91.90
50969;DHT22;36982;51.474;7.228;2023-08-06T06:01:23;18.80;91.30
50969;DHT22;36982;51.474;7.228;2023-08-06T06:03:49;18.80;87.20
50969;DHT22;36982;51.474;7.228;2023-08-06T06:06:14;19.00;89.00
50969;DHT22;36982;51.474;7.228;2023-08-06T06:08:40;19.00;87.20
50969;DHT22;36982;51.474;7.228;2023-08-06T06:11:05;19.00;85.00
50969;DHT22;36982;51.474;7.228;2023-08-06T06:13:31;18.90;86.30
50969;DHT22;36982;51.474;7.228;2023-08-06T06:15:56;19.00;84.40
50969;DHT22;36982;51.474;7.228;2023-08-06T06:18:22;18.90;87.40
50969;DHT22;36982;51.474;7.228;2023-08-06T06:20:48;18.90;89.90
50969;DHT22;36982;51.474;7.228;2023-08-06T06:23:13;18.80;85.50
50969;DHT22;36982;51.474;7.228;2023-08-06T06:25:49;18.80;81.20
50969;DHT22;36982;51.474;7.228;2023-08-06T06:28:18;18.90;87.40
50969;DHT22;36982;51.474;7.228;2023-08-06T06:30:44;19.30;87.20
50969;DHT22;36982;51.474;7.228;2023-08-06T06:33:09;19.50;75.30
50969;DHT22;36982;51.474;7.228;2023-08-06T06:35:35;19.60;76.70
50969;DHT22;36982;51.474;7.228;2023-08-06T06:38:01;19.50;71.00
50969;DHT22;36982;51.474;7.228;2023-08-06T06:40:26;19.30;65.00
50969;DHT22;36982;51.474;7.228;2023-08-06T06:42:52;18.90;75.80
50969;DHT22;36982;51.474;7.228;2023-08-06T06:45:17;19.00;79.60
50969;DHT22;36982;51.474;7.228;2023-08-06T06:47:43;19.10;82.20
50969;DHT22;36982;51.474;7.228;2023-08-06T06:50:09;19.30;83.70
50969;DHT22;36982;51.474;7.228;2023-08-06T06:52:34;19.40;85.90
50969;DHT22;36982;51.474;7.228;2023-08-06T06:55:00;19.40;86.70
50969;DHT22;36982;51.474;7.228;2023-08-06T06:57:26;19.20;79.90
50969;DHT22;36982;51.474;7.228;2023-08-06T06:59:51;18.90;78.90
50969;DHT22;36982;51.474;7.228;2023-08-06T07:02:17;18.70;82.60
50969;DHT22;36982;51.474;7.228;2023-08-06T07:04:42;18.80;85.20
50969;DHT22;36982;51.474;7.228;2023-08-06T07:07:08;19.10;86.80
50969;DHT22;36982;51.474;7.228;2023-08-06T07:09:33;19.20;81.30
50969;DHT22;36982;51.474;7.228;2023-08-06T07:11:59;19.30;80.70
50969;DHT22;36982;51.474;7.228;2023-08-06T07:14:25;19.40;80.40
50969;DHT22;36982;51.474;7.228;2023-08-06T07:16:51;19.40;66.70
50969;DHT22;36982;51.474;7.228;2023-08-06T07:19:16;19.30;76.80
50969;DHT22;36982;51.474;7.228;2023-08-06T07:21:42;19.40;80.90
50969;DHT22;36982;51.474;7.228;2023-08-06T07:24:08;19.60;80.00
50969;DHT22;36982;51.474;7.228;2023-08-06T07:26:33;19.70;71.00
50969;DHT22;36982;51.474;7.228;2023-08-06T07:28:59;19.60;74.10
50969;DHT22;36982;51.474;7.228;2023-08-06T07:31:24;19.70;76.70
50969;DHT22;36982;51.474;7.228;2023-08-06T07:33:51;19.80;67.80
50969;DHT22;36982;51.474;7.228;2023-08-06T07:36:16;19.60;66.40
50969;DHT22;36982;51.474;7.228;2023-08-06T07:38:42;19.60;68.20
50969;DHT22;36982;51.474;7.228;2023-08-06T07:41:08;19.60;69.10
50969;DHT22;36982;51.474;7.228;2023-08-06T07:43:34;19.30;64.50
50969;DHT22;36982;51.474;7.228;2023-08-06T07:46:01;19.30;63.60
50969;DHT22;36982;51.474;7.228;2023-08-06T07:48:27;19.30;67.10
50969;DHT22;36982;51.474;7.228;2023-08-06T07:50:54;19.40;73.50
50969;DHT22;36982;51.474;7.228;2023-08-06T07:53:21;19.50;72.80
50969;DHT22;36982;51.474;7.228;2023-08-06T07:55:50;19.40;68.00
50969;DHT22;36982;51.474;7.228;2023-08-06T07:58:17;19.40;74.40
50969;DHT22;36982;51.474;7.228;2023-08-06T08:00:42;19.40;77.80
50969;DHT22;36982;51.474;7.228;2023-08-06T08:03:14;19.50;79.00
50969;DHT22;36982;51.474;7.228;2023-08-06T08:05:40;19.50;79.30
50969;DHT22;36982;51.474;7.228;2023-08-06T08:08:06;19.60;70.30
50969;DHT22;36982;51.474;7.228;2023-08-06T08:10:32;19.70;69.80
50969;DHT22;36982;51.474;7.228;2023-08-06T08:12:58;19.70;64.00
50969;DHT22;36982;51.474;7.228;2023-08-06T08:15:24;19.80;69.60
50969;DHT22;36982;51.474;7.228;2023-08-06T08:17:52;19.60;58.00
50969;DHT22;36982;51.474;7.228;2023-08-06T08:20:17;19.60;64.90
50969;DHT22;36982;51.474;7.228;2023-08-06T08:22:43;19.90;68.70
50969;DHT22;36982;51.474;7.228;2023-08-06T08:25:09;19.70;57.00
50969;DHT22;36982;51.474;7.228;2023-08-06T08:27:34;19.70;56.20
50969;DHT22;36982;51.474;7.228;2023-08-06T08:30:00;19.80;61.90
50969;DHT22;36982;51.474;7.228;2023-08-06T08:32:25;20.00;47.10
50969;DHT22;36982;51.474;7.228;2023-08-06T08:34:51;20.10;51.10
50969;DHT22;36982;51.474;7.228;2023-08-06T08:37:16;20.20;53.70
50969;DHT22;36982;51.474;7.228;2023-08-06T08:39:42;20.20;43.40
50969;DHT22;36982;51.474;7.228;2023-08-06T08:42:08;20.30;58.40
50969;DHT22;36982;51.474;7.228;2023-08-06T08:44:35;20.60;56.90
50969;DHT22;36982;51.474;7.228;2023-08-06T08:47:07;20.50;23.20
50969;DHT22;36982;51.474;7.228;2023-08-06T08:49:36;20.20;1.00
50969;DHT22;36982;51.474;7.228;2023-08-06T08:52:03;20.10;1.00
50969;DHT22;36982;51.474;7.228;2023-08-06T08:54:32;19.90;1.00
50969;DHT22;36982;51.474;7.228;2023-08-06T08:56:58;20.10;1.00
50969;DHT22;36982;51.474;7.228;2023-08-06T08:59:24;20.40;1.00
50969;DHT22;36982;51.474;7.228;2023-08-06T09:01:50;20.10;1.00
50969;DHT22;36982;51.474;7.228;2023-08-06T09:04:17;19.70;1.00
50969;DHT22;36982;51.474;7.228;2023-08-06T09:06:46;19.70;1.00
50969;DHT22;36982;51.474;7.228;2023-08-06T09:09:13;19.70;1.00
50969;DHT22;36982;51.474;7.228;2023-08-06T09:11:43;19.90;1.00
50969;DHT22;36982;51.474;7.228;2023-08-06T09:14:09;19.90;1.00
50969;DHT22;36982;51.474;7.228;2023-08-06T09:16:36;20.10;1.00
50969;DHT22;36982;51.474;7.228;2023-08-06T09:19:16;20.10;1.00
50969;DHT22;36982;51.474;7.228;2023-08-06T09:21:43;20.00;1.00
50969;DHT22;36982;51.474;7.228;2023-08-06T09:24:12;20.00;1.00
50969;DHT22;36982;51.474;7.228;2023-08-06T09:26:43;19.70;1.00
50969;DHT22;36982;51.474;7.228;2023-08-06T09:29:10;19.60;1.00
50969;DHT22;36982;51.474;7.228;2023-08-06T09:31:49;19.50;1.00
50969;DHT22;36982;51.474;7.228;2023-08-06T09:34:18;19.30;2.00
50969;DHT22;36982;51.474;7.228;2023-08-06T09:36:49;19.10;5.50
50969;DHT22;36982;51.474;7.228;2023-08-06T09:39:17;18.90;17.50
50969;DHT22;36982;51.474;7.228;2023-08-06T09:41:43;18.70;7.90
50969;DHT22;36982;51.474;7.228;2023-08-06T09:44:17;18.50;21.90
50969;DHT22;36982;51.474;7.228;2023-08-06T09:46:50;18.60;29.20
50969;DHT22;36982;51.474;7.228;2023-08-06T09:49:17;18.70;30.60
50969;DHT22;36982;51.474;7.228;2023-08-06T09:51:44;18.80;1.00
50969;DHT22;36982;51.474;7.228;2023-08-06T09:54:12;18.50;14.20
50969;DHT22;36982;51.474;7.228;2023-08-06T09:56:38;18.50;30.20
50969;DHT22;36982;51.474;7.228;2023-08-06T09:59:07;18.60;40.80
50969;DHT22;36982;51.474;7.228;2023-08-06T10:01:34;18.70;40.10
50969;DHT22;36982;51.474;7.228;2023-08-06T10:04:01;18.70;46.80
50969;DHT22;36982;51.474;7.228;2023-08-06T10:06:28;18.80;50.70
50969;DHT22;36982;51.474;7.228;2023-08-06T10:08:54;18.40;39.00
50969;DHT22;36982;51.474;7.228;2023-08-06T10:11:23;18.40;38.80
50969;DHT22;36982;51.474;7.228;2023-08-06T10:13:53;18.20;45.30
50969;DHT22;36982;51.474;7.228;2023-08-06T10:16:21;18.30;38.60
50969;DHT22;36982;51.474;7.228;2023-08-06T10:18:47;18.60;27.30
50969;DHT22;36982;51.474;7.228;2023-08-06T10:21:14;18.70;28.50
50969;DHT22;36982;51.474;7.228;2023-08-06T10:23:40;19.20;20.90
50969;DHT22;36982;51.474;7.228;2023-08-06T10:26:06;19.40;1.00
50969;DHT22;36982;51.474;7.228;2023-08-06T10:28:37;19.20;1.00
50969;DHT22;36982;51.474;7.228;2023-08-06T10:31:03;19.30;1.00
50969;DHT22;36982;51.474;7.228;2023-08-06T10:33:50;19.30;1.00
50969;DHT22;36982;51.474;7.228;2023-08-06T10:36:15;19.00;1.00
50969;DHT22;36982;51.474;7.228;2023-08-06T10:38:49;19.20;1.00
50969;DHT22;36982;51.474;7.228;2023-08-06T10:41:17;19.60;1.00
50969;DHT22;36982;51.474;7.228;2023-08-06T10:43:47;19.90;1.00
50969;DHT22;36982;51.474;7.228;2023-08-06T10:46:22;20.30;1.00
50969;DHT22;36982;51.474;7.228;2023-08-06T10:48:49;20.50;1.00
50969;DHT22;36982;51.474;7.228;2023-08-06T10:51:14;20.80;1.00
50969;DHT22;36982;51.474;7.228;2023-08-06T10:53:44;20.90;1.00
50969;DHT22;36982;51.474;7.228;2023-08-06T10:58:43;21.00;1.00
50969;DHT22;36982;51.474;7.228;2023-08-06T11:01:09;21.20;1.00
50969;DHT22;36982;51.474;7.228;2023-08-06T11:03:36;21.10;99.90
50969;DHT22;36982;51.474;7.228;2023-08-06T11:06:02;21.00;99.90
50969;DHT22;36982;51.474;7.228;2023-08-06T11:08:29;21.00;99.90
50969;DHT22;36982;51.474;7.228;2023-08-06T11:10:55;20.90;99.90
50969;DHT22;36982;51.474;7.228;2023-08-06T11:13:21;21.10;99.90
50969;DHT22;36982;51.474;7.228;2023-08-06T11:15:47;20.90;99.90
50969;DHT22;36982;51.474;7.228;2023-08-06T11:18:13;20.90;99.90
50969;DHT22;36982;51.474;7.228;2023-08-06T11:20:39;20.90;1.00
50969;DHT22;36982;51.474;7.228;2023-08-06T11:23:05;20.60;1.00
50969;DHT22;36982;51.474;7.228;2023-08-06T11:25:34;20.00;1.00
50969;DHT22;36982;51.474;7.228;2023-08-06T11:28:01;19.90;1.00
50969;DHT22;36982;51.474;7.228;2023-08-06T11:30:27;19.80;1.00
50969;DHT22;36982;51.474;7.228;2023-08-06T11:32:52;19.60;1.00
50969;DHT22;36982;51.474;7.228;2023-08-06T11:35:18;19.70;1.00
50969;DHT22;36982;51.474;7.228;2023-08-06T11:37:47;19.80;1.00
50969;DHT22;36982;51.474;7.228;2023-08-06T11:40:14;19.80;1.00
50969;DHT22;36982;51.474;7.228;2023-08-06T11:42:40;19.80;1.00
50969;DHT22;36982;51.474;7.228;2023-08-06T11:45:08;20.00;1.00
50969;DHT22;36982;51.474;7.228;2023-08-06T11:47:38;20.30;1.00
50969;DHT22;36982;51.474;7.228;2023-08-06T11:50:05;20.70;1.00
50969;DHT22;36982;51.474;7.228;2023-08-06T11:52:31;20.60;1.00
50969;DHT22;36982;51.474;7.228;2023-08-06T11:55:07;20.80;1.00
50969;DHT22;36982;51.474;7.228;2023-08-06T11:57:38;20.40;1.00
50969;DHT22;36982;51.474;7.228;2023-08-06T12:00:06;20.30;1.00
50969;DHT22;36982;51.474;7.228;2023-08-06T12:02:33;20.00;1.00
50969;DHT22;36982;51.474;7.228;2023-08-06T12:05:10;19.80;1.00
50969;DHT22;36982;51.474;7.228;2023-08-06T12:07:38;19.70;1.00
50969;DHT22;36982;51.474;7.228;2023-08-06T12:10:04;19.50;1.00
50969;DHT22;36982;51.474;7.228;2023-08-06T12:12:30;19.50;1.00
50969;DHT22;36982;51.474;7.228;2023-08-06T12:14:56;19.30;1.00
50969;DHT22;36982;51.474;7.228;2023-08-06T12:17:23;19.10;16.60
50969;DHT22;36982;51.474;7.228;2023-08-06T12:19:49;18.90;3.60
50969;DHT22;36982;51.474;7.228;2023-08-06T12:22:14;18.60;14.50
50969;DHT22;36982;51.474;7.228;2023-08-06T12:24:42;18.40;24.70
50969;DHT22;36982;51.474;7.228;2023-08-06T12:27:08;18.20;48.30
50969;DHT22;36982;51.474;7.228;2023-08-06T12:29:33;17.90;71.50
50969;DHT22;36982;51.474;7.228;2023-08-06T12:31:59;17.70;79.20
50969;DHT22;36982;51.474;7.228;2023-08-06T12:34:24;17.50;86.80
50969;DHT22;36982;51.474;7.228;2023-08-06T12:36:50;17.50;91.80
50969;DHT22;36982;51.474;7.228;2023-08-06T12:39:16;17.40;93.20
50969;DHT22;36982;51.474;7.228;2023-08-06T12:41:41;17.10;93.90
50969;DHT22;36982;51.474;7.228;2023-08-06T12:44:09;17.00;95.00
50969;DHT22;36982;51.474;7.228;2023-08-06T12:46:34;16.80;96.20
50969;DHT22;36982;51.474;7.228;2023-08-06T12:49:00;16.60;94.10
50969;DHT22;36982;51.474;7.228;2023-08-06T12:51:25;16.70;97.20
50969;DHT22;36982;51.474;7.228;2023-08-06T12:53:51;16.50;95.90
50969;DHT22;36982;51.474;7.228;2023-08-06T12:56:16;16.40;94.10
50969;DHT22;36982;51.474;7.228;2023-08-06T12:58:42;16.00;94.90
50969;DHT22;36982;51.474;7.228;2023-08-06T13:01:08;15.80;97.00
50969;DHT22;36982;51.474;7.228;2023-08-06T13:03:33;15.90;97.90
50969;DHT22;36982;51.474;7.228;2023-08-06T13:05:59;15.90;99.10
50969;DHT22;36982;51.474;7.228;2023-08-06T13:08:24;15.80;99.70
50969;DHT22;36982;51.474;7.228;2023-08-06T13:10:50;15.70;98.60
50969;DHT22;36982;51.474;7.228;2023-08-06T13:13:16;15.70;99.90
50969;DHT22;36982;51.474;7.228;2023-08-06T13:15:41;15.70;99.90
50969;DHT22;36982;51.474;7.228;2023-08-06T13:18:07;15.70;99.90
50969;DHT22;36982;51.474;7.228;2023-08-06T13:20:32;15.60;99.90
50969;DHT22;36982;51.474;7.228;2023-08-06T13:22:58;15.40;99.90
50969;DHT22;36982;51.474;7.228;2023-08-06T13:25:26;15.20;99.90
50969;DHT22;36982;51.474;7.228;2023-08-06T13:27:53;15.30;99.90
50969;DHT22;36982;51.474;7.228;2023-08-06T13:30:20;15.30;99.90
50969;DHT22;36982;51.474;7.228;2023-08-06T13:32:45;15.30;99.90
50969;DHT22;36982;51.474;7.228;2023-08-06T13:35:25;15.20;99.90
50969;DHT22;36982;51.474;7.228;2023-08-06T13:37:51;15.20;99.90
50969;DHT22;36982;51.474;7.228;2023-08-06T13:40:16;15.10;99.90
50969;DHT22;36982;51.474;7.228;2023-08-06T13:42:42;15.10;99.90
50969;DHT22;36982;51.474;7.228;2023-08-06T13:45:08;15.10;99.90
50969;DHT22;36982;51.474;7.228;2023-08-06T13:47:34;15.10;99.90
50969;DHT22;36982;51.474;7.228;2023-08-06T13:49:59;15.00;99.90
50969;DHT22;36982;51.474;7.228;2023-08-06T13:52:28;15.10;99.90
50969;DHT22;36982;51.474;7.228;2023-08-06T13:54:53;15.20;99.90
50969;DHT22;36982;51.474;7.228;2023-08-06T13:57:19;15.40;99.90
50969;DHT22;36982;51.474;7.228;2023-08-06T13:59:44;15.10;99.90
50969;DHT22;36982;51.474;7.228;2023-08-06T14:02:10;15.20;99.90
50969;DHT22;36982;51.474;7.228;2023-08-06T14:04:36;15.10;99.90
50969;DHT22;36982;51.474;7.228;2023-08-06T14:07:03;15.30;99.90
50969;DHT22;36982;51.474;7.228;2023-08-06T14:09:29;15.10;99.90
50969;DHT22;36982;51.474;7.228;2023-08-06T14:11:55;15.10;99.90
50969;DHT22;36982;51.474;7.228;2023-08-06T14:14:20;15.20;99.90
50969;DHT22;36982;51.474;7.228;2023-08-06T14:16:51;15.20;99.90
50969;DHT22;36982;51.474;7.228;2023-08-06T14:19:17;15.20;99.90
50969;DHT22;36982;51.474;7.228;2023-08-06T14:21:43;15.20;99.90
50969;DHT22;36982;51.474;7.228;2023-08-06T14:24:08;15.10;99.90
50969;DHT22;36982;51.474;7.228;2023-08-06T14:26:34;15.10;99.90
50969;DHT22;36982;51.474;7.228;2023-08-06T14:29:01;15.00;99.90
50969;DHT22;36982;51.474;7.228;2023-08-06T14:31:26;15.20;99.90
50969;DHT22;36982;51.474;7.228;2023-08-06T14:33:52;15.20;99.90
50969;DHT22;36982;51.474;7.228;2023-08-06T14:36:18;15.20;99.90
50969;DHT22;36982;51.474;7.228;2023-08-06T14:38:44;15.10;99.90
50969;DHT22;36982;51.474;7.228;2023-08-06T14:41:09;15.20;99.90
50969;DHT22;36982;51.474;7.228;2023-08-06T14:43:35;15.20;99.90
50969;DHT22;36982;51.474;7.228;2023-08-06T14:46:00;15.30;99.90
50969;DHT22;36982;51.474;7.228;2023-08-06T14:48:26;15.20;99.90
50969;DHT22;36982;51.474;7.228;2023-08-06T14:50:51;15.30;99.90
50969;DHT22;36982;51.474;7.228;2023-08-06T14:53:17;15.10;99.90
50969;DHT22;36982;51.474;7.228;2023-08-06T14:55:42;15.20;99.90
50969;DHT22;36982;51.474;7.228;2023-08-06T14:58:08;15.30;99.90
50969;DHT22;36982;51.474;7.228;2023-08-06T15:00:34;15.40;99.90
50969;DHT22;36982;51.474;7.228;2023-08-06T15:02:59;15.30;99.90
50969;DHT22;36982;51.474;7.228;2023-08-06T15:05:25;15.40;99.90
50969;DHT22;36982;51.474;7.228;2023-08-06T15:07:51;15.50;99.90
50969;DHT22;36982;51.474;7.228;2023-08-06T15:10:18;15.50;99.90
50969;DHT22;36982;51.474;7.228;2023-08-06T15:12:44;15.50;99.90
50969;DHT22;36982;51.474;7.228;2023-08-06T15:15:10;15.50;99.90
50969;DHT22;36982;51.474;7.228;2023-08-06T15:17:35;15.50;99.90
50969;DHT22;36982;51.474;7.228;2023-08-06T15:20:01;15.50;99.90
50969;DHT22;36982;51.474;7.228;2023-08-06T15:22:28;15.50;99.90
50969;DHT22;36982;51.474;7.228;2023-08-06T15:24:54;15.40;99.90
50969;DHT22;36982;51.474;7.228;2023-08-06T15:27:20;15.50;99.90
50969;DHT22;36982;51.474;7.228;2023-08-06T15:29:45;15.60;99.90
50969;DHT22;36982;51.474;7.228;2023-08-06T15:32:11;15.50;99.90
50969;DHT22;36982;51.474;7.228;2023-08-06T15:34:36;15.70;99.90
50969;DHT22;36982;51.474;7.228;2023-08-06T15:37:02;15.80;99.90